Denver, CO (80202)

5:45 AM MST on February 14, 2016 (GMT -0700)
San Rafael Neighborhood | | Change Station
CLOSE
Current Station
Personal Weather Station
Location: Denver, CO
Elevation: 5253 ft
Nearby Weather Stations

Elev 5253 ft 39.75 °N, 104.98 °W | Updated 58 seconds ago

Clear
Clear
32.5 °F
Feels Like 32 °F
N
0.0
Wind Variable Wind from West
Gusts 0.0 mph

Today
High -- | Low -- °F
--% Chance of Precip.
Yesterday
High -- | Low -- °F
Precip. -- in
Pressure 29.91 in
Visibility 10.0 miles
Clouds Few 14000 ft
Scattered Clouds 22000 ft
Windchill 32 °F
Dew Point 25 °F
Humidity 74%
Rainfall 0.00 in
Snow Depth Not available.
6:54 AM 5:34 PM
Waxing Crescent, 41% visible
METAR KAPA 141153Z 16015KT 10SM FEW140 SCT220 01/M06 A2995 RMK AO2 SLP127 T00061061 10067 21006 56026
Pressure 29.91 in
Visibility 10.0 miles
Clouds Few 14000 ft
Scattered Clouds 22000 ft
Windchill 32 °F
Dew Point 25 °F
Humidity 74%
Rainfall 0.00 in
Snow Depth Not available.
6:54 AM 5:34 PM
Waxing Crescent, 41% visible
METAR KAPA 141153Z 16015KT 10SM FEW140 SCT220 01/M06 A2995 RMK AO2 SLP127 T00061061 10067 21006 56026

10-Day Weather Forecast

Almanac

Astronomy

Feb. 14, 2016 Rise Set
Actual Time
Civil Twilight
Nautical Twilight
Astronomical Twilight
Moon
Length of Visible Light
Length of Day
Tomorrow will be .
, % of the Moon is Illuminated

Today's Extremes

State Highs State Lows

Community

WunderPhotos

Upload Photos

1,892,775 photos uploaded!

WunderBlog® & News

Nearby

Air Quality

  Air Quality AQ Index Pollutant
Not available.

Snow Depth

Station Depth Elevation

Earthquake Activity

City Distance Mag. Time & Date
Minimum magnitude displayed is 2.5.

Coastal Water Temperatures

Place Temperature

Stations

Nearby Weather Stations

Station Location Temp. Windchill Dew Point Humidity Wind Precip. Elev Updated Type
                   

Watches & Warnings

There are currently no watches in effect.